Time;durP1;ratioP1;P1;durP2;ratioP2;P2;SDS_P1;SDS_P2;PMS_P1;PMS_P2;Temp;Humidity;BMP_temperature;BMP_pressure;BME280_temperature;BME280_humidity;BME280_pressure;Samples;Min_cycle;Max_cycle;Signal;HPM_P1;HPM_P2
2021/06/13 00:02:01;;;;;;;13.23;6.10;;;;;;;;;;5093601;28;20486;-53
2021/06/13 00:04:28;;;;;;;15.97;6.17;;;;;;;;;;5093749;28;20442;-53
2021/06/13 00:06:56;;;;;;;12.10;6.00;;;;;;;;;;5093893;28;20483;-53
2021/06/13 00:09:22;;;;;;;16.00;6.30;;;;;;;;;;5093353;28;21014;-53
2021/06/13 00:11:50;;;;;;;11.87;6.53;;;;;;;;;;5093659;28;20812;-54
2021/06/13 00:14:19;;;;;;;9.07;6.03;;;;;;;;;;5093706;28;20442;-53
2021/06/13 00:16:46;;;;;;;9.00;5.87;;;;;;;;;;5093469;28;20431;-53
2021/06/13 00:19:13;;;;;;;11.93;7.17;;;;;;;;;;5093521;28;20442;-53
2021/06/13 00:21:40;;;;;;;12.93;6.50;;;;;;;;;;5093541;28;20561;-53
2021/06/13 00:24:07;;;;;;;8.83;6.00;;;;;;;;;;5095858;28;20825;-54
2021/06/13 00:26:34;;;;;;;11.77;5.30;;;;;;;;;;5097569;28;20442;-54
2021/06/13 00:29:00;;;;;;;17.50;6.80;;;;;;;;;;5097474;28;20477;-54
2021/06/13 00:31:29;;;;;;;12.23;7.03;;;;;;;;;;5097391;28;20466;-54
2021/06/13 00:33:55;;;;;;;12.13;6.90;;;;;;;;;;5097108;28;21006;-54
2021/06/13 00:36:22;;;;;;;15.83;6.30;;;;;;;;;;5097036;28;20446;-54
2021/06/13 00:38:49;;;;;;;12.47;6.17;;;;;;;;;;5096964;28;20438;-54
2021/06/13 00:41:17;;;;;;;18.13;6.70;;;;;;;;;;5096894;28;20470;-54
2021/06/13 00:43:44;;;;;;;11.10;6.20;;;;;;;;;;5097304;28;20536;-54
2021/06/13 00:46:10;;;;;;;12.90;5.60;;;;;;;;;;5096950;28;20953;-54
2021/06/13 00:48:38;;;;;;;8.23;5.30;;;;;;;;;;5096726;28;20989;-54
2021/06/13 00:51:05;;;;;;;14.20;6.40;;;;;;;;;;5097066;28;20520;-54
2021/06/13 00:53:32;;;;;;;14.83;6.43;;;;;;;;;;5097179;28;20457;-54
2021/06/13 00:55:59;;;;;;;17.23;6.63;;;;;;;;;;5097007;28;20446;-54
2021/06/13 00:58:26;;;;;;;11.20;5.67;;;;;;;;;;5097031;28;20434;-54
2021/06/13 01:00:53;;;;;;;10.63;5.50;;;;;;;;;;5096634;28;20860;-53
2021/06/13 01:03:21;;;;;;;13.20;6.13;;;;;;;;;;5096922;28;20455;-54
2021/06/13 01:05:49;;;;;;;12.60;6.03;;;;;;;;;;5096990;28;20470;-53
2021/06/13 01:08:20;;;;;;;9.90;5.83;;;;;;;;;;5096655;28;20442;-54
2021/06/13 01:10:51;;;;;;;13.13;7.63;;;;;;;;;;5096401;28;20544;-53
2021/06/13 01:13:21;;;;;;;10.73;6.67;;;;;;;;;;5096441;28;20487;-54
2021/06/13 01:15:51;;;;;;;12.80;6.25;;;;;;;;;;5097148;28;20446;-54
2021/06/13 01:18:21;;;;;;;14.20;6.60;;;;;;;;;;5096352;28;20215;-53
2021/06/13 01:20:52;;;;;;;11.10;6.33;;;;;;;;;;5096183;28;20465;-54
2021/06/13 01:23:34;;;;;;;10.33;6.80;;;;;;;;;;5096541;28;20434;-54
2021/06/13 01:26:11;;;;;;;16.17;6.63;;;;;;;;;;5096546;28;20441;-52
2021/06/13 01:28:58;;;;;;;10.60;6.83;;;;;;;;;;5096421;28;20519;-52
2021/06/13 01:31:26;;;;;;;13.93;6.37;;;;;;;;;;5096193;28;20882;-53
2021/06/13 01:33:55;;;;;;;13.17;6.90;;;;;;;;;;5096891;28;20918;-53
2021/06/13 01:36:22;;;;;;;11.13;6.73;;;;;;;;;;5097254;28;20438;-53
2021/06/13 01:38:50;;;;;;;9.35;5.95;;;;;;;;;;5095902;28;20941;-53
2021/06/13 01:41:19;;;;;;;13.77;5.60;;;;;;;;;;5096094;28;20227;-52
2021/06/13 01:43:46;;;;;;;12.00;5.77;;;;;;;;;;5096098;28;20442;-52
2021/06/13 01:46:15;;;;;;;10.47;6.60;;;;;;;;;;5096009;28;20446;-53
2021/06/13 01:48:42;;;;;;;14.63;5.63;;;;;;;;;;5095948;28;20904;-53
2021/06/13 01:51:09;;;;;;;9.00;5.37;;;;;;;;;;5095679;28;20462;-53
2021/06/13 01:53:42;;;;;;;11.10;5.90;;;;;;;;;;5095935;28;20438;-53
2021/06/13 01:56:09;;;;;;;10.07;6.20;;;;;;;;;;5095985;28;20303;-53
2021/06/13 01:58:37;;;;;;;9.53;6.07;;;;;;;;;;5095805;28;20442;-53
2021/06/13 02:01:05;;;;;;;12.17;5.43;;;;;;;;;;5095383;28;20485;-53
2021/06/13 02:03:34;;;;;;;11.00;6.07;;;;;;;;;;5096137;28;20443;-54
2021/06/13 02:06:02;;;;;;;11.38;6.45;;;;;;;;;;5095406;28;20945;-53
2021/06/13 02:08:31;;;;;;;10.70;5.38;;;;;;;;;;5095674;28;20204;-53
2021/06/13 02:10:58;;;;;;;11.73;5.90;;;;;;;;;;5095638;28;20220;-54
2021/06/13 02:13:25;;;;;;;13.57;5.60;;;;;;;;;;5095451;28;20453;-54
2021/06/13 02:15:54;;;;;;;12.23;5.90;;;;;;;;;;5095544;28;20446;-53
2021/06/13 02:18:21;;;;;;;16.23;6.13;;;;;;;;;;5095543;28;20204;-53
2021/06/13 02:20:50;;;;;;;16.33;6.50;;;;;;;;;;5095117;28;20768;-53
2021/06/13 02:23:17;;;;;;;9.45;5.40;;;;;;;;;;5095997;28;20454;-55
2021/06/13 02:25:44;;;;;;;8.45;5.72;;;;;;;;;;5095245;28;20192;-54
2021/06/13 02:28:11;;;;;;;9.02;4.90;;;;;;;;;;5095227;28;20250;-53
2021/06/13 02:30:39;;;;;;;12.97;5.57;;;;;;;;;;5095042;28;20228;-53
2021/06/13 02:33:06;;;;;;;15.63;6.05;;;;;;;;;;5095147;28;20551;-53
2021/06/13 02:35:33;;;;;;;10.47;5.33;;;;;;;;;;5094969;28;20204;-53
2021/06/13 02:38:02;;;;;;;15.85;6.38;;;;;;;;;;5095050;28;20453;-54
2021/06/13 02:40:29;;;;;;;13.02;6.28;;;;;;;;;;5094618;28;20220;-53
2021/06/13 02:42:56;;;;;;;15.03;5.77;;;;;;;;;;5094960;28;20269;-54
2021/06/13 02:45:23;;;;;;;12.33;6.40;;;;;;;;;;5095045;28;20442;-54
2021/06/13 02:47:50;;;;;;;15.70;5.50;;;;;;;;;;5093750;28;20450;-54
2021/06/13 02:50:18;;;;;;;13.32;5.55;;;;;;;;;;5094312;28;20554;-54
2021/06/13 02:52:47;;;;;;;11.02;6.72;;;;;;;;;;5094712;28;20203;-54
2021/06/13 02:55:18;;;;;;;10.57;6.45;;;;;;;;;;5094755;28;20200;-54
2021/06/13 02:57:49;;;;;;;11.55;6.07;;;;;;;;;;5094425;28;20188;-54
2021/06/13 03:00:17;;;;;;;18.27;6.05;;;;;;;;;;5094677;28;20278;-54
2021/06/13 03:02:46;;;;;;;9.32;5.65;;;;;;;;;;5094765;28;20189;-54
2021/06/13 03:05:13;;;;;;;16.40;5.70;;;;;;;;;;5094385;28;20204;-54
2021/06/13 03:07:40;;;;;;;8.70;4.78;;;;;;;;;;5094517;28;20208;-54
2021/06/13 03:10:08;;;;;;;13.23;6.10;;;;;;;;;;5094268;28;20220;-54
2021/06/13 03:12:37;;;;;;;12.50;6.20;;;;;;;;;;5094203;28;20207;-54
2021/06/13 03:15:04;;;;;;;13.85;6.28;;;;;;;;;;5094076;28;20733;-54
2021/06/13 03:17:32;;;;;;;12.73;5.65;;;;;;;;;;5094351;28;20208;-54
2021/06/13 03:19:59;;;;;;;10.05;5.45;;;;;;;;;;5093858;28;20788;-54
2021/06/13 03:22:26;;;;;;;12.88;5.80;;;;;;;;;;5094252;28;20594;-54
2021/06/13 03:24:53;;;;;;;10.25;6.57;;;;;;;;;;5094207;28;20204;-53
2021/06/13 03:27:20;;;;;;;14.00;5.90;;;;;;;;;;5093829;28;20208;-54
2021/06/13 03:29:49;;;;;;;12.85;5.72;;;;;;;;;;5093951;28;20525;-55
2021/06/13 03:32:16;;;;;;;10.55;5.97;;;;;;;;;;5093768;28;20204;-54
2021/06/13 03:34:44;;;;;;;10.05;6.88;;;;;;;;;;5094473;28;20215;-54
2021/06/13 03:37:12;;;;;;;12.15;5.88;;;;;;;;;;5093626;28;20201;-54
2021/06/13 03:39:41;;;;;;;9.90;5.93;;;;;;;;;;5093952;28;20204;-54
2021/06/13 03:42:08;;;;;;;9.97;6.10;;;;;;;;;;5093898;28;20220;-54
2021/06/13 03:44:36;;;;;;;11.10;6.05;;;;;;;;;;5093919;28;20846;-54
2021/06/13 03:47:05;;;;;;;8.37;5.13;;;;;;;;;;5093523;28;20207;-54
2021/06/13 03:49:33;;;;;;;9.05;5.78;;;;;;;;;;5093744;28;20535;-54
2021/06/13 03:52:00;;;;;;;11.53;6.47;;;;;;;;;;5093448;28;20599;-54
2021/06/13 03:54:28;;;;;;;11.67;5.43;;;;;;;;;;5093389;28;20807;-54
2021/06/13 03:56:58;;;;;;;10.07;5.40;;;;;;;;;;5093687;28;20458;-54
2021/06/13 03:59:26;;;;;;;9.47;6.13;;;;;;;;;;5093000;28;20438;-53
2021/06/13 04:01:54;;;;;;;11.40;6.20;;;;;;;;;;5104904;22;20545;-60
2021/06/13 04:04:23;;;;;;;15.63;5.43;;;;;;;;;;5073323;28;20867;-60
2021/06/13 04:08:15;;;;;;;9.97;5.93;;;;;;;;;;5153664;27;21076;-60
2021/06/13 04:10:43;;;;;;;9.53;6.13;;;;;;;;;;5148212;27;20556;-59
2021/06/13 04:13:12;;;;;;;12.60;6.80;;;;;;;;;;5132143;27;20448;-60
2021/06/13 04:15:40;;;;;;;9.45;5.68;;;;;;;;;;5132130;27;20495;-59
2021/06/13 04:18:07;;;;;;;10.00;5.77;;;;;;;;;;5132427;27;20650;-60
2021/06/13 04:20:35;;;;;;;11.30;5.87;;;;;;;;;;5131522;27;20516;-60
2021/06/13 04:23:03;;;;;;;8.43;5.57;;;;;;;;;;5131290;27;20452;-60
2021/06/13 04:25:32;;;;;;;11.53;5.97;;;;;;;;;;5131966;27;20518;-60
2021/06/13 04:27:59;;;;;;;6.73;5.33;;;;;;;;;;5131302;27;20473;-60
2021/06/13 04:30:27;;;;;;;11.93;5.17;;;;;;;;;;5131417;27;20455;-59
2021/06/13 04:32:55;;;;;;;7.97;4.70;;;;;;;;;;5131274;27;20447;-61
2021/06/13 04:35:22;;;;;;;12.40;6.03;;;;;;;;;;5131353;27;20863;-60
2021/06/13 04:37:49;;;;;;;8.00;5.60;;;;;;;;;;5131321;27;20517;-58
2021/06/13 04:40:16;;;;;;;12.40;6.43;;;;;;;;;;5131085;27;20517;-60
2021/06/13 04:42:45;;;;;;;12.40;6.20;;;;;;;;;;5131093;27;20445;-60
2021/06/13 04:45:13;;;;;;;8.60;5.20;;;;;;;;;;5131155;27;20850;-60
2021/06/13 04:47:40;;;;;;;11.20;5.37;;;;;;;;;;5131159;27;20476;-60
2021/06/13 04:50:08;;;;;;;11.73;5.23;;;;;;;;;;5130703;27;20956;-61
2021/06/13 04:52:37;;;;;;;10.87;5.60;;;;;;;;;;5130899;27;20497;-60
2021/06/13 04:55:11;;;;;;;11.20;5.27;;;;;;;;;;5130905;27;20445;-60
2021/06/13 04:57:46;;;;;;;9.50;4.50;;;;;;;;;;5131232;27;20754;-60
2021/06/13 05:00:15;;;;;;;8.63;4.80;;;;;;;;;;5130783;27;20482;-59
2021/06/13 05:02:42;;;;;;;10.70;5.20;;;;;;;;;;5130414;27;20498;-60
2021/06/13 05:05:10;;;;;;;8.03;5.10;;;;;;;;;;5130784;27;20444;-60
2021/06/13 05:07:38;;;;;;;6.53;5.00;;;;;;;;;;5130233;27;20477;-60
2021/06/13 05:10:05;;;;;;;9.20;4.90;;;;;;;;;;5130548;27;20500;-59
2021/06/13 05:12:43;;;;;;;8.70;5.00;;;;;;;;;;5130628;27;20461;-59
2021/06/13 05:15:10;;;;;;;9.60;4.93;;;;;;;;;;5130617;27;20482;-60
2021/06/13 05:17:39;;;;;;;10.07;5.63;;;;;;;;;;5127983;27;20498;-60
2021/06/13 05:20:07;;;;;;;9.70;5.07;;;;;;;;;;5116816;28;20467;-59
2021/06/13 05:22:34;;;;;;;8.80;4.70;;;;;;;;;;5116866;28;20441;-60
2021/06/13 05:25:01;;;;;;;11.23;5.50;;;;;;;;;;5116515;28;20437;-60
2021/06/13 05:27:29;;;;;;;8.13;5.20;;;;;;;;;;5116591;27;20473;-59
2021/06/13 05:29:56;;;;;;;9.93;4.37;;;;;;;;;;5116658;28;20851;-59
2021/06/13 05:32:23;;;;;;;5.07;4.00;;;;;;;;;;5116282;28;20514;-60
2021/06/13 05:34:52;;;;;;;7.77;4.73;;;;;;;;;;5116424;28;20446;-60
2021/06/13 05:37:19;;;;;;;17.20;5.17;;;;;;;;;;5116598;28;20433;-60
2021/06/13 05:39:46;;;;;;;10.10;5.07;;;;;;;;;;5116298;28;20878;-59
2021/06/13 05:42:13;;;;;;;9.60;3.70;;;;;;;;;;5116231;28;20469;-61
2021/06/13 05:44:41;;;;;;;7.53;4.20;;;;;;;;;;5116132;28;20495;-61
2021/06/13 05:47:08;;;;;;;8.77;4.10;;;;;;;;;;5116915;28;20477;-60
2021/06/13 05:49:35;;;;;;;6.80;4.83;;;;;;;;;;5116566;28;20850;-60
2021/06/13 05:52:04;;;;;;;5.60;3.93;;;;;;;;;;5117568;28;20522;-60
2021/06/13 05:54:31;;;;;;;11.23;4.00;;;;;;;;;;5119555;28;20442;-59
2021/06/13 05:56:58;;;;;;;6.53;3.60;;;;;;;;;;5120692;28;20836;-59
2021/06/13 05:59:25;;;;;;;8.63;4.53;;;;;;;;;;5120148;28;20437;-60
2021/06/13 06:01:53;;;;;;;10.33;4.50;;;;;;;;;;5123398;28;20465;-59
2021/06/13 06:04:20;;;;;;;13.30;4.30;;;;;;;;;;5117746;28;20866;-60
2021/06/13 06:06:47;;;;;;;13.90;4.23;;;;;;;;;;5115844;28;20530;-60
2021/06/13 06:09:16;;;;;;;7.23;3.83;;;;;;;;;;5116785;28;20554;-60
2021/06/13 06:11:43;;;;;;;10.17;4.27;;;;;;;;;;5117638;28;20461;-60
2021/06/13 06:14:10;;;;;;;6.97;4.43;;;;;;;;;;5120028;28;20442;-59
2021/06/13 06:16:38;;;;;;;8.83;4.17;;;;;;;;;;5117363;28;20449;-59
2021/06/13 06:19:05;;;;;;;13.73;4.43;;;;;;;;;;5117798;28;20764;-60
2021/06/13 06:21:32;;;;;;;5.53;3.93;;;;;;;;;;5120723;28;20585;-60
2021/06/13 06:24:00;;;;;;;8.77;4.10;;;;;;;;;;5119262;28;20863;-60
2021/06/13 06:26:28;;;;;;;7.60;4.13;;;;;;;;;;5120617;28;20449;-60
2021/06/13 06:28:55;;;;;;;7.20;4.80;;;;;;;;;;5118911;28;20866;-60
2021/06/13 06:31:23;;;;;;;10.50;4.13;;;;;;;;;;5117861;28;20541;-59
2021/06/13 06:33:51;;;;;;;10.83;3.90;;;;;;;;;;5118087;28;20933;-60
2021/06/13 06:36:18;;;;;;;7.23;4.00;;;;;;;;;;5117181;28;20498;-60
2021/06/13 06:38:45;;;;;;;6.40;3.80;;;;;;;;;;5115721;28;20514;-60
2021/06/13 06:41:12;;;;;;;7.93;4.73;;;;;;;;;;5115029;28;20526;-59
2021/06/13 06:43:41;;;;;;;9.43;4.10;;;;;;;;;;5115230;28;20471;-60
2021/06/13 06:46:08;;;;;;;9.20;4.17;;;;;;;;;;5115043;28;20446;-60
2021/06/13 06:48:35;;;;;;;11.00;4.43;;;;;;;;;;5115246;28;20481;-60
2021/06/13 06:51:03;;;;;;;6.60;3.93;;;;;;;;;;5114694;28;20458;-60
2021/06/13 06:53:30;;;;;;;9.17;4.67;;;;;;;;;;5115054;28;20445;-60
2021/06/13 06:55:57;;;;;;;7.63;4.10;;;;;;;;;;5114876;28;20441;-60
2021/06/13 06:58:24;;;;;;;7.30;3.70;;;;;;;;;;5114980;28;20446;-60
2021/06/13 07:00:53;;;;;;;8.63;4.50;;;;;;;;;;5114653;28;20465;-60
2021/06/13 07:03:20;;;;;;;10.63;3.80;;;;;;;;;;5114816;28;20846;-60
2021/06/13 07:05:48;;;;;;;11.33;5.20;;;;;;;;;;5114850;28;20438;-60
2021/06/13 07:08:15;;;;;;;6.77;3.90;;;;;;;;;;5114743;28;20477;-60
2021/06/13 07:10:42;;;;;;;6.13;4.17;;;;;;;;;;5114468;28;20514;-60
2021/06/13 07:13:10;;;;;;;9.23;3.90;;;;;;;;;;5114871;28;20486;-60
2021/06/13 07:15:37;;;;;;;7.37;4.00;;;;;;;;;;5114381;28;20485;-60
2021/06/13 07:18:06;;;;;;;7.60;3.30;;;;;;;;;;5115262;28;20449;-59
2021/06/13 07:20:35;;;;;;;6.90;3.60;;;;;;;;;;5114842;28;20526;-59
2021/06/13 07:23:02;;;;;;;5.87;3.17;;;;;;;;;;5115124;28;20854;-60
2021/06/13 07:25:29;;;;;;;6.43;3.33;;;;;;;;;;5114098;28;21002;-60
2021/06/13 07:27:57;;;;;;;12.43;3.60;;;;;;;;;;5116151;28;20542;-60
2021/06/13 07:30:24;;;;;;;10.90;3.70;;;;;;;;;;5116614;28;20474;-60
2021/06/13 07:32:51;;;;;;;4.57;3.20;;;;;;;;;;5116308;28;20789;-59
2021/06/13 07:35:21;;;;;;;5.53;3.33;;;;;;;;;;5116518;28;20446;-60
2021/06/13 07:37:48;;;;;;;5.70;3.13;;;;;;;;;;5117497;28;20783;-61
2021/06/13 07:40:16;;;;;;;7.73;3.30;;;;;;;;;;5116244;28;20851;-61
2021/06/13 07:42:44;;;;;;;4.67;2.87;;;;;;;;;;5116929;28;20798;-61
2021/06/13 07:45:12;;;;;;;4.70;2.80;;;;;;;;;;5117183;28;20456;-60
2021/06/13 07:47:40;;;;;;;6.43;3.37;;;;;;;;;;5116327;28;21036;-60
2021/06/13 07:50:08;;;;;;;8.03;3.07;;;;;;;;;;5114754;28;20494;-60
2021/06/13 07:52:37;;;;;;;7.80;3.50;;;;;;;;;;5114981;28;20490;-59
2021/06/13 07:55:05;;;;;;;4.80;2.77;;;;;;;;;;5114471;28;20940;-60
2021/06/13 07:57:32;;;;;;;5.50;3.17;;;;;;;;;;5114835;28;20441;-60
2021/06/13 08:00:00;;;;;;;7.23;3.60;;;;;;;;;;5114710;28;20929;-61
2021/06/13 08:02:27;;;;;;;8.40;2.73;;;;;;;;;;5115736;28;20988;-60
2021/06/13 08:04:59;;;;;;;8.23;3.20;;;;;;;;;;5115498;28;20994;-59
2021/06/13 08:07:27;;;;;;;6.73;3.50;;;;;;;;;;5116020;28;20484;-61
2021/06/13 08:09:55;;;;;;;6.80;3.40;;;;;;;;;;5116796;28;20441;-61
2021/06/13 08:12:23;;;;;;;8.07;3.37;;;;;;;;;;5116493;28;20461;-60
2021/06/13 08:14:50;;;;;;;6.80;3.23;;;;;;;;;;5116253;28;20514;-60
2021/06/13 08:17:17;;;;;;;4.80;3.07;;;;;;;;;;5114904;28;20852;-60
2021/06/13 08:19:44;;;;;;;5.50;3.00;;;;;;;;;;5113999;28;20448;-60
2021/06/13 08:22:12;;;;;;;6.23;3.23;;;;;;;;;;5113615;28;20526;-60
2021/06/13 08:24:39;;;;;;;6.33;3.63;;;;;;;;;;5113712;28;20447;-60
2021/06/13 08:27:08;;;;;;;6.63;3.60;;;;;;;;;;5113625;28;20495;-60
2021/06/13 08:29:36;;;;;;;3.80;2.80;;;;;;;;;;5113907;28;20792;-61
2021/06/13 08:32:04;;;;;;;5.93;3.00;;;;;;;;;;5114077;28;20526;-60
2021/06/13 08:34:31;;;;;;;6.47;3.53;;;;;;;;;;5114607;28;20442;-61
2021/06/13 08:36:58;;;;;;;5.63;2.90;;;;;;;;;;5113754;28;20450;-60
2021/06/13 08:39:25;;;;;;;5.20;2.83;;;;;;;;;;5113982;28;20441;-59
2021/06/13 08:41:53;;;;;;;6.53;3.10;;;;;;;;;;5113112;28;21037;-59
2021/06/13 08:44:22;;;;;;;6.90;3.33;;;;;;;;;;5113963;28;20445;-61
2021/06/13 08:46:50;;;;;;;8.10;2.93;;;;;;;;;;5113561;28;20492;-60
2021/06/13 08:49:17;;;;;;;6.07;3.17;;;;;;;;;;5113504;28;21003;-60
2021/06/13 08:51:45;;;;;;;6.77;3.37;;;;;;;;;;5113771;28;20473;-60
2021/06/13 08:54:13;;;;;;;6.57;3.13;;;;;;;;;;5116477;28;20441;-60
2021/06/13 08:56:41;;;;;;;4.63;2.50;;;;;;;;;;5117527;28;20441;-61
2021/06/13 08:59:09;;;;;;;5.20;2.90;;;;;;;;;;5120457;28;20850;-60
2021/06/13 09:01:37;;;;;;;6.50;3.10;;;;;;;;;;5119524;28;20465;-61
2021/06/13 09:04:05;;;;;;;4.63;3.10;;;;;;;;;;5117263;28;20445;-60
2021/06/13 09:06:32;;;;;;;6.50;3.03;;;;;;;;;;5117094;28;20809;-59
2021/06/13 09:09:00;;;;;;;5.53;2.73;;;;;;;;;;5116647;28;20999;-60
2021/06/13 09:11:28;;;;;;;5.70;2.90;;;;;;;;;;5116902;28;20496;-60
2021/06/13 09:14:11;;;;;;;7.00;3.10;;;;;;;;;;5116711;28;20944;-60
2021/06/13 09:16:40;;;;;;;7.67;3.07;;;;;;;;;;5116523;27;20425;-60
2021/06/13 09:19:07;;;;;;;4.47;2.90;;;;;;;;;;5116909;28;20545;-60
2021/06/13 09:21:37;;;;;;;4.50;2.47;;;;;;;;;;5116541;28;20458;-59
2021/06/13 09:24:17;;;;;;;7.10;3.50;;;;;;;;;;5116893;28;20616;-60
2021/06/13 09:26:44;;;;;;;6.30;2.47;;;;;;;;;;5117217;28;20425;-60
2021/06/13 09:29:11;;;;;;;8.07;2.70;;;;;;;;;;5116396;28;20890;-59
2021/06/13 09:31:40;;;;;;;6.90;2.70;;;;;;;;;;5116565;28;20975;-60
2021/06/13 09:34:13;;;;;;;5.03;2.63;;;;;;;;;;5116686;28;20441;-60
2021/06/13 09:36:41;;;;;;;8.43;3.33;;;;;;;;;;5116718;28;20429;-61
2021/06/13 09:39:09;;;;;;;5.40;3.20;;;;;;;;;;5115975;28;20954;-60
2021/06/13 09:41:39;;;;;;;4.90;2.57;;;;;;;;;;5116137;28;20519;-60
2021/06/13 09:44:07;;;;;;;6.07;2.40;;;;;;;;;;5116417;28;20445;-60
2021/06/13 09:46:36;;;;;;;4.80;2.63;;;;;;;;;;5116332;28;20441;-60
2021/06/13 09:49:07;;;;;;;5.63;2.97;;;;;;;;;;5115743;28;20477;-61
2021/06/13 09:51:35;;;;;;;5.43;3.27;;;;;;;;;;5116550;28;20476;-60
2021/06/13 09:54:03;;;;;;;5.10;2.50;;;;;;;;;;5115817;28;20466;-60
2021/06/13 09:56:31;;;;;;;4.77;2.77;;;;;;;;;;5115874;28;20449;-59
2021/06/13 09:59:02;;;;;;;4.30;2.73;;;;;;;;;;5116037;28;20916;-60
2021/06/13 10:04:10;;;;;;;5.37;2.90;;;;;;;;;;5053793;28;20460;-55
2021/06/13 10:06:38;;;;;;;4.43;2.77;;;;;;;;;;5054860;28;20981;-55
2021/06/13 10:09:06;;;;;;;6.67;3.03;;;;;;;;;;5055011;28;20475;-54
2021/06/13 10:11:36;;;;;;;4.70;3.10;;;;;;;;;;5054635;28;20448;-54
2021/06/13 10:14:06;;;;;;;6.60;2.97;;;;;;;;;;5055388;28;20487;-54
2021/06/13 10:16:35;;;;;;;6.80;3.30;;;;;;;;;;5054707;28;20494;-53
2021/06/13 10:19:03;;;;;;;6.17;2.97;;;;;;;;;;5054525;28;20440;-53
2021/06/13 10:21:35;;;;;;;4.97;3.03;;;;;;;;;;5055397;28;20444;-54
2021/06/13 10:24:02;;;;;;;5.40;2.77;;;;;;;;;;5054865;28;20437;-54
2021/06/13 10:26:30;;;;;;;4.30;2.90;;;;;;;;;;5054408;28;20448;-53
2021/06/13 10:28:57;;;;;;;6.13;2.73;;;;;;;;;;5054329;28;20901;-53
2021/06/13 10:31:25;;;;;;;4.97;3.10;;;;;;;;;;5055156;28;20494;-53
2021/06/13 10:33:52;;;;;;;7.13;3.00;;;;;;;;;;5054071;28;20529;-53
2021/06/13 10:36:19;;;;;;;6.40;2.90;;;;;;;;;;5054522;28;20447;-53
2021/06/13 10:38:48;;;;;;;5.97;2.60;;;;;;;;;;5054759;28;20448;-53
2021/06/13 10:41:15;;;;;;;10.13;4.20;;;;;;;;;;5054754;28;20448;-52
2021/06/13 10:43:44;;;;;;;8.47;3.10;;;;;;;;;;5055220;28;21033;-53
2021/06/13 10:46:13;;;;;;;5.13;2.83;;;;;;;;;;5054776;28;20467;-53
2021/06/13 10:48:42;;;;;;;4.43;2.87;;;;;;;;;;5054461;28;20479;-53
2021/06/13 10:51:28;;;;;;;5.03;2.90;;;;;;;;;;5054268;28;20444;-53
2021/06/13 10:54:17;;;;;;;5.37;3.20;;;;;;;;;;5054446;28;20814;-52
2021/06/13 10:56:44;;;;;;;5.00;3.20;;;;;;;;;;5054007;28;20501;-52
2021/06/13 10:59:13;;;;;;;3.77;2.93;;;;;;;;;;5054072;28;20490;-52
2021/06/13 11:01:56;;;;;;;8.07;2.63;;;;;;;;;;5054203;28;20470;-52
2021/06/13 11:04:41;;;;;;;4.50;2.97;;;;;;;;;;5073626;28;20877;-53
2021/06/13 11:07:09;;;;;;;5.77;2.40;;;;;;;;;;5073949;28;20423;-52
2021/06/13 11:10:04;;;;;;;5.67;2.70;;;;;;;;;;5073768;28;20482;-53
2021/06/13 11:12:39;;;;;;;4.50;2.90;;;;;;;;;;5073463;28;20471;-54
2021/06/13 11:15:09;;;;;;;6.17;3.20;;;;;;;;;;5073658;28;20535;-52
2021/06/13 11:17:55;;;;;;;3.97;2.67;;;;;;;;;;5073210;28;20431;-53
2021/06/13 11:20:47;;;;;;;4.20;2.63;;;;;;;;;;5074531;28;20819;-52
2021/06/13 11:23:42;;;;;;;7.23;3.00;;;;;;;;;;5073286;28;20990;-49
2021/06/13 11:26:28;;;;;;;4.80;3.20;;;;;;;;;;5073601;28;20435;-52
2021/06/13 11:28:55;;;;;;;5.70;3.77;;;;;;;;;;5073222;28;20459;-54
2021/06/13 11:31:24;;;;;;;5.90;3.50;;;;;;;;;;5073568;28;20451;-53
2021/06/13 11:33:51;;;;;;;8.67;3.27;;;;;;;;;;5073365;28;20510;-53
2021/06/13 11:36:29;;;;;;;8.00;3.70;;;;;;;;;;5073074;28;20504;-53
2021/06/13 11:39:16;;;;;;;6.10;3.50;;;;;;;;;;5073146;28;20449;-53
2021/06/13 11:41:47;;;;;;;7.40;4.20;;;;;;;;;;5073270;28;20829;-55
2021/06/13 11:44:27;;;;;;;7.13;3.40;;;;;;;;;;5073408;28;20435;-52
2021/06/13 11:46:54;;;;;;;5.57;3.53;;;;;;;;;;5073091;28;20425;-51
2021/06/13 11:49:23;;;;;;;4.73;2.80;;;;;;;;;;5073432;28;20487;-52
2021/06/13 11:51:52;;;;;;;4.30;3.07;;;;;;;;;;5072964;28;20447;-50
2021/06/13 11:54:30;;;;;;;5.10;3.37;;;;;;;;;;5073084;28;20474;-52
2021/06/13 11:56:59;;;;;;;6.63;2.77;;;;;;;;;;5072959;28;20424;-52
2021/06/13 11:59:27;;;;;;;7.10;3.30;;;;;;;;;;5072945;28;20839;-52
2021/06/13 12:01:56;;;;;;;4.90;2.67;;;;;;;;;;5072360;28;20470;-54
2021/06/13 12:04:26;;;;;;;6.43;3.57;;;;;;;;;;5073234;28;20487;-52
2021/06/13 12:06:54;;;;;;;6.07;2.90;;;;;;;;;;5073027;28;20455;-52
2021/06/13 12:09:22;;;;;;;4.30;2.83;;;;;;;;;;5073091;28;20481;-52
2021/06/13 12:11:50;;;;;;;6.03;3.63;;;;;;;;;;5073252;28;20457;-51
2021/06/13 12:14:20;;;;;;;5.33;3.10;;;;;;;;;;5072536;28;20953;-51
2021/06/13 12:16:48;;;;;;;3.73;3.30;;;;;;;;;;5072604;28;20448;-52
2021/06/13 12:19:15;;;;;;;5.07;3.47;;;;;;;;;;5072512;28;20917;-52
2021/06/13 12:21:43;;;;;;;5.10;3.03;;;;;;;;;;5072702;28;20452;-52
2021/06/13 12:24:20;;;;;;;6.60;3.70;;;;;;;;;;5072741;28;20459;-53
2021/06/13 12:29:37;;;;;;;3.63;3.00;;;;;;;;;;5075782;28;20457;-53
2021/06/13 12:32:12;;;;;;;5.80;3.90;;;;;;;;;;5077128;28;20520;-52
2021/06/13 12:34:39;;;;;;;6.10;3.17;;;;;;;;;;5076920;28;20494;-52
2021/06/13 12:37:06;;;;;;;4.73;3.17;;;;;;;;;;5076218;28;20454;-52
2021/06/13 12:39:36;;;;;;;4.87;3.10;;;;;;;;;;5076738;28;20446;-52
2021/06/13 12:42:10;;;;;;;4.40;2.57;;;;;;;;;;5076504;28;20535;-52
2021/06/13 12:44:39;;;;;;;4.97;3.20;;;;;;;;;;5076586;28;20446;-52
2021/06/13 12:47:07;;;;;;;5.00;3.33;;;;;;;;;;5076464;28;20448;-52
2021/06/13 12:49:41;;;;;;;3.47;2.60;;;;;;;;;;5076180;28;20497;-51
2021/06/13 12:52:13;;;;;;;4.60;3.00;;;;;;;;;;5076460;28;20469;-52
2021/06/13 12:54:40;;;;;;;5.53;3.53;;;;;;;;;;5076555;28;20453;-52
2021/06/13 12:57:08;;;;;;;6.97;2.93;;;;;;;;;;5076348;28;20452;-53
2021/06/13 12:59:36;;;;;;;4.90;2.93;;;;;;;;;;5076632;28;20494;-52
2021/06/13 13:02:07;;;;;;;5.13;3.00;;;;;;;;;;5075867;28;20529;-53
2021/06/13 13:04:47;;;;;;;4.17;2.90;;;;;;;;;;5076243;28;20474;-52
2021/06/13 13:07:26;;;;;;;7.83;3.03;;;;;;;;;;5075948;28;20932;-52
2021/06/13 13:10:07;;;;;;;7.13;3.40;;;;;;;;;;5075966;28;20513;-52
2021/06/13 13:12:35;;;;;;;4.90;2.83;;;;;;;;;;5075593;28;20470;-52
2021/06/13 13:15:16;;;;;;;4.00;3.30;;;;;;;;;;5075816;28;20442;-51
2021/06/13 13:17:45;;;;;;;5.50;2.87;;;;;;;;;;5076271;28;20477;-52
2021/06/13 13:20:21;;;;;;;4.37;3.60;;;;;;;;;;5075479;28;20450;-52
2021/06/13 13:22:49;;;;;;;6.67;3.40;;;;;;;;;;5075398;28;20469;-52
2021/06/13 13:25:17;;;;;;;5.90;2.70;;;;;;;;;;5075410;28;20487;-52
2021/06/13 13:27:44;;;;;;;6.13;3.27;;;;;;;;;;5075583;28;20453;-52
2021/06/13 13:30:28;;;;;;;8.47;3.70;;;;;;;;;;5075946;28;20473;-51
2021/06/13 13:32:58;;;;;;;4.73;3.37;;;;;;;;;;5075232;28;21038;-52
2021/06/13 13:35:29;;;;;;;4.83;3.20;;;;;;;;;;5075836;28;20936;-52
2021/06/13 13:37:57;;;;;;;3.37;2.70;;;;;;;;;;5075477;28;20446;-52
2021/06/13 13:40:24;;;;;;;3.70;2.87;;;;;;;;;;5074758;28;20808;-52
2021/06/13 13:43:02;;;;;;;6.63;2.77;;;;;;;;;;5075695;28;20950;-52
2021/06/13 13:45:30;;;;;;;7.23;2.83;;;;;;;;;;5075637;28;20420;-50
2021/06/13 13:48:08;;;;;;;6.17;3.10;;;;;;;;;;5075257;28;20496;-52
2021/06/13 13:50:36;;;;;;;4.60;3.27;;;;;;;;;;5075458;28;20468;-52
2021/06/13 13:53:25;;;;;;;5.97;3.00;;;;;;;;;;5075087;28;20515;-52
2021/06/13 13:55:54;;;;;;;6.40;3.70;;;;;;;;;;5075185;28;20796;-50
2021/06/13 13:58:22;;;;;;;4.40;3.10;;;;;;;;;;5075042;28;20449;-53
2021/06/13 14:00:53;;;;;;;3.33;2.50;;;;;;;;;;5075262;28;20858;-52
2021/06/13 14:03:21;;;;;;;4.13;2.80;;;;;;;;;;5074735;28;20528;-52
2021/06/13 14:05:49;;;;;;;6.23;2.90;;;;;;;;;;5074983;28;20445;-52
2021/06/13 14:08:16;;;;;;;5.77;2.80;;;;;;;;;;5074984;28;20449;-52
2021/06/13 14:10:44;;;;;;;6.10;2.90;;;;;;;;;;5075176;28;20484;-52
2021/06/13 14:13:11;;;;;;;5.20;3.20;;;;;;;;;;5074885;28;20466;-52
2021/06/13 14:15:38;;;;;;;7.83;3.73;;;;;;;;;;5074721;28;20452;-51
2021/06/13 14:18:08;;;;;;;5.00;2.60;;;;;;;;;;5074685;28;20450;-52
2021/06/13 14:20:37;;;;;;;6.23;3.10;;;;;;;;;;5074606;28;21005;-52
2021/06/13 14:23:04;;;;;;;4.27;2.77;;;;;;;;;;5074503;28;20473;-52
2021/06/13 14:25:32;;;;;;;4.73;2.90;;;;;;;;;;5074829;28;20495;-52
2021/06/13 14:27:59;;;;;;;5.67;3.10;;;;;;;;;;5074777;28;20450;-53
2021/06/13 14:30:26;;;;;;;6.13;3.73;;;;;;;;;;5074216;28;20475;-52
2021/06/13 14:32:54;;;;;;;6.20;2.47;;;;;;;;;;5074561;28;20514;-53
2021/06/13 14:35:21;;;;;;;7.90;2.90;;;;;;;;;;5074607;28;20453;-50
2021/06/13 14:37:50;;;;;;;5.97;3.30;;;;;;;;;;5074298;28;20461;-52
2021/06/13 14:40:17;;;;;;;7.13;3.43;;;;;;;;;;5074585;28;20442;-52
2021/06/13 14:42:45;;;;;;;4.53;2.73;;;;;;;;;;5074385;28;20472;-52
2021/06/13 14:45:14;;;;;;;4.57;3.00;;;;;;;;;;5074461;28;20489;-52
2021/06/13 14:47:42;;;;;;;3.80;2.60;;;;;;;;;;5074427;28;20442;-52
2021/06/13 14:50:10;;;;;;;4.33;2.53;;;;;;;;;;5074043;28;20529;-52
2021/06/13 14:52:39;;;;;;;3.03;2.53;;;;;;;;;;5073599;28;20474;-51
2021/06/13 14:55:09;;;;;;;6.90;3.67;;;;;;;;;;5074001;28;20500;-52
2021/06/13 14:57:36;;;;;;;5.53;3.10;;;;;;;;;;5074046;28;20454;-52